Time;durP1;ratioP1;P1;durP2;ratioP2;P2;SDS_P1;SDS_P2;PMS_P1;PMS_P2;Temp;Humidity;BMP_temperature;BMP_pressure;BME280_temperature;BME280_humidity;BME280_pressure;Samples;Min_cycle;Max_cycle;Signal;HPM_P1;HPM_P2
2022/12/24 00:01:42;;;;;;;14.93;7.97;;;;;;;;;;5091431;28;20431;-71
2022/12/24 00:04:08;;;;;;;12.70;7.20;;;;;;;;;;5091504;28;20790;-71
2022/12/24 00:06:35;;;;;;;15.07;7.53;;;;;;;;;;5087364;28;20768;-71
2022/12/24 00:09:02;;;;;;;15.27;6.77;;;;;;;;;;5053685;28;20482;-71
2022/12/24 00:11:29;;;;;;;11.23;6.83;;;;;;;;;;5071131;28;20416;-71
2022/12/24 00:13:56;;;;;;;13.97;7.73;;;;;;;;;;5071033;28;20449;-71
2022/12/24 00:16:22;;;;;;;14.47;7.10;;;;;;;;;;5071259;28;20516;-71
2022/12/24 00:18:49;;;;;;;15.10;7.43;;;;;;;;;;5053122;28;20462;-70
2022/12/24 00:21:16;;;;;;;14.87;7.60;;;;;;;;;;5071244;28;20428;-71
2022/12/24 00:23:43;;;;;;;14.67;6.90;;;;;;;;;;5059020;28;20445;-70
2022/12/24 00:26:10;;;;;;;13.13;7.40;;;;;;;;;;5073147;28;20435;-70
2022/12/24 00:28:37;;;;;;;17.03;7.60;;;;;;;;;;5090937;28;20442;-71
2022/12/24 00:31:07;;;;;;;14.30;7.83;;;;;;;;;;5091031;28;21349;-70
2022/12/24 00:33:34;;;;;;;14.63;7.77;;;;;;;;;;5091290;28;20423;-70
2022/12/24 00:36:04;;;;;;;14.60;7.97;;;;;;;;;;5090933;28;20436;-70
2022/12/24 00:38:30;;;;;;;12.90;6.77;;;;;;;;;;5072125;28;20481;-70
2022/12/24 00:40:58;;;;;;;12.00;7.60;;;;;;;;;;5090887;28;20818;-70
2022/12/24 00:43:25;;;;;;;14.27;8.10;;;;;;;;;;5072638;28;20505;-70
2022/12/24 00:45:53;;;;;;;16.63;9.47;;;;;;;;;;5073134;28;20427;-70
2022/12/24 00:48:21;;;;;;;12.80;7.60;;;;;;;;;;5090676;28;20442;-70
2022/12/24 00:50:48;;;;;;;18.10;8.87;;;;;;;;;;5090414;28;20781;-70
2022/12/24 00:53:15;;;;;;;12.83;8.20;;;;;;;;;;5090534;28;20554;-70
2022/12/24 00:55:42;;;;;;;16.23;8.83;;;;;;;;;;5078598;28;20977;-70
2022/12/24 00:58:09;;;;;;;18.23;9.13;;;;;;;;;;5069981;28;20421;-70
2022/12/24 01:00:36;;;;;;;20.67;9.67;;;;;;;;;;5070631;28;20468;-70
2022/12/24 01:03:03;;;;;;;17.97;8.93;;;;;;;;;;5052502;28;20446;-70
2022/12/24 01:05:29;;;;;;;15.80;8.60;;;;;;;;;;5052308;28;20440;-70
2022/12/24 01:07:56;;;;;;;15.33;8.40;;;;;;;;;;5068525;28;20901;-70
2022/12/24 01:10:23;;;;;;;16.00;8.40;;;;;;;;;;5070136;28;20412;-70
2022/12/24 01:12:50;;;;;;;16.40;8.13;;;;;;;;;;5069840;28;20458;-70
2022/12/24 01:15:17;;;;;;;17.30;9.53;;;;;;;;;;5070305;28;20416;-70
2022/12/24 01:17:43;;;;;;;15.80;8.70;;;;;;;;;;5052150;28;21510;-70
2022/12/24 01:20:12;;;;;;;20.93;8.57;;;;;;;;;;5069742;28;20459;-70
2022/12/24 01:22:38;;;;;;;17.83;9.20;;;;;;;;;;5052324;28;20424;-70
2022/12/24 01:25:05;;;;;;;18.20;9.10;;;;;;;;;;5069738;28;20421;-70
2022/12/24 01:27:32;;;;;;;15.93;9.07;;;;;;;;;;5052457;28;20512;-70
2022/12/24 01:29:59;;;;;;;18.23;9.27;;;;;;;;;;5069913;28;20435;-70
2022/12/24 01:32:25;;;;;;;16.07;8.77;;;;;;;;;;5069735;28;20421;-70
2022/12/24 01:34:52;;;;;;;19.63;9.47;;;;;;;;;;5051720;28;20435;-70
2022/12/24 01:37:19;;;;;;;17.57;9.53;;;;;;;;;;5069898;28;20437;-70
2022/12/24 01:39:45;;;;;;;22.10;10.30;;;;;;;;;;5069165;28;20465;-70
2022/12/24 01:45:20;;;;;;;22.23;10.83;;;;;;;;;;5054721;28;20429;-70
2022/12/24 01:47:47;;;;;;;19.87;10.13;;;;;;;;;;5069239;28;20428;-70
2022/12/24 01:50:14;;;;;;;20.87;9.90;;;;;;;;;;5034791;28;20842;-70
2022/12/24 01:52:41;;;;;;;19.60;10.10;;;;;;;;;;5055661;28;20471;-70
2022/12/24 01:55:16;;;;;;;20.30;10.47;;;;;;;;;;5087470;28;20427;-70
2022/12/24 01:57:53;;;;;;;18.60;9.47;;;;;;;;;;5069086;28;20432;-70
2022/12/24 02:00:20;;;;;;;20.03;9.33;;;;;;;;;;5051936;28;20467;-70
2022/12/24 02:02:47;;;;;;;19.37;9.53;;;;;;;;;;5051415;28;20519;-70
2022/12/24 02:05:16;;;;;;;16.40;9.37;;;;;;;;;;5051822;28;20502;-70
2022/12/24 02:07:42;;;;;;;19.83;11.77;;;;;;;;;;5051434;28;20417;-70
2022/12/24 02:10:09;;;;;;;24.13;11.53;;;;;;;;;;5051412;28;20524;-70
2022/12/24 02:12:36;;;;;;;19.77;11.67;;;;;;;;;;5069225;28;20436;-70
2022/12/24 02:15:04;;;;;;;21.70;11.53;;;;;;;;;;5052199;28;20432;-70
2022/12/24 02:17:30;;;;;;;16.27;9.43;;;;;;;;;;5051632;28;20425;-70
2022/12/24 02:19:57;;;;;;;17.93;8.97;;;;;;;;;;5069232;28;20539;-70
2022/12/24 02:22:27;;;;;;;19.10;10.13;;;;;;;;;;5069142;28;20802;-70
2022/12/24 02:25:12;;;;;;;18.07;10.60;;;;;;;;;;5069211;28;20466;-70
2022/12/24 02:28:05;;;;;;;17.83;9.80;;;;;;;;;;5069465;28;20518;-70
2022/12/24 02:30:37;;;;;;;15.87;8.90;;;;;;;;;;5065727;28;20497;-70
2022/12/24 02:33:16;;;;;;;17.43;9.73;;;;;;;;;;5051372;28;20511;-70
2022/12/24 02:35:52;;;;;;;16.47;8.40;;;;;;;;;;5051257;28;20442;-70
2022/12/24 02:38:26;;;;;;;16.57;9.50;;;;;;;;;;5069003;28;20416;-70
2022/12/24 02:41:24;;;;;;;17.33;9.63;;;;;;;;;;5053952;28;20463;-70
2022/12/24 02:43:52;;;;;;;14.37;8.60;;;;;;;;;;5051195;28;20450;-70
2022/12/24 02:46:23;;;;;;;15.73;9.10;;;;;;;;;;5051284;28;20471;-70
2022/12/24 02:48:50;;;;;;;16.07;8.30;;;;;;;;;;5050809;28;20517;-70
2022/12/24 02:51:20;;;;;;;14.77;8.10;;;;;;;;;;5051247;28;20444;-70
2022/12/24 02:53:47;;;;;;;14.13;7.90;;;;;;;;;;5046959;28;20800;-70
2022/12/24 02:56:19;;;;;;;13.53;8.00;;;;;;;;;;5089030;28;20413;-70
2022/12/24 02:58:52;;;;;;;15.63;8.17;;;;;;;;;;5088459;28;20419;-70
2022/12/24 03:01:18;;;;;;;13.27;7.97;;;;;;;;;;5089062;28;20471;-70
2022/12/24 03:03:58;;;;;;;16.53;7.63;;;;;;;;;;5088700;28;20435;-70
2022/12/24 03:06:26;;;;;;;12.23;7.80;;;;;;;;;;5089218;28;20439;-70
2022/12/24 03:08:53;;;;;;;16.20;8.20;;;;;;;;;;5089183;28;20418;-70
2022/12/24 03:11:20;;;;;;;14.37;7.80;;;;;;;;;;5074856;28;20428;-70
2022/12/24 03:13:47;;;;;;;17.03;8.67;;;;;;;;;;5056370;28;20432;-70
2022/12/24 03:16:15;;;;;;;14.80;8.60;;;;;;;;;;5054667;28;20475;-70
2022/12/24 03:18:42;;;;;;;16.17;8.43;;;;;;;;;;5035653;28;20449;-70
2022/12/24 03:21:10;;;;;;;13.57;7.50;;;;;;;;;;5054473;28;20462;-71
2022/12/24 03:23:37;;;;;;;18.70;9.03;;;;;;;;;;5072436;28;20439;-70
2022/12/24 03:26:05;;;;;;;32.67;18.17;;;;;;;;;;5072050;28;20424;-70
2022/12/24 03:28:31;;;;;;;21.13;11.47;;;;;;;;;;5054400;28;20429;-70
2022/12/24 03:30:59;;;;;;;20.83;10.53;;;;;;;;;;5054080;28;20429;-70
2022/12/24 03:33:26;;;;;;;14.90;9.50;;;;;;;;;;5053854;28;20413;-71
2022/12/24 03:35:53;;;;;;;18.07;9.30;;;;;;;;;;5071886;28;20910;-70
2022/12/24 03:38:20;;;;;;;14.40;8.87;;;;;;;;;;5071927;28;20432;-70
2022/12/24 03:40:46;;;;;;;16.67;8.63;;;;;;;;;;5071245;28;20491;-70
2022/12/24 03:43:13;;;;;;;12.10;7.27;;;;;;;;;;5054181;28;20428;-70
2022/12/24 03:45:40;;;;;;;10.23;6.00;;;;;;;;;;5071795;28;20491;-70
2022/12/24 03:48:07;;;;;;;14.07;7.37;;;;;;;;;;5053646;28;20466;-70
2022/12/24 03:50:51;;;;;;;11.53;6.10;;;;;;;;;;5056441;28;20417;-70
2022/12/24 03:53:17;;;;;;;6.17;4.57;;;;;;;;;;5080417;28;20427;-70
2022/12/24 03:56:02;;;;;;;10.80;5.00;;;;;;;;;;5077103;28;20951;-70
2022/12/24 03:58:29;;;;;;;8.43;4.93;;;;;;;;;;5053499;28;20412;-70
2022/12/24 04:01:13;;;;;;;6.57;4.20;;;;;;;;;;5053314;28;20476;-70
2022/12/24 04:03:40;;;;;;;8.00;4.40;;;;;;;;;;5054088;28;20421;-70
2022/12/24 04:06:07;;;;;;;6.07;4.33;;;;;;;;;;5071149;28;20548;-70
2022/12/24 04:08:34;;;;;;;9.73;5.63;;;;;;;;;;5053590;28;20435;-70
2022/12/24 04:11:02;;;;;;;16.90;7.70;;;;;;;;;;5071265;28;20499;-70
2022/12/24 04:13:35;;;;;;;14.20;7.23;;;;;;;;;;5070807;28;20478;-70
2022/12/24 04:16:06;;;;;;;12.60;7.07;;;;;;;;;;5071189;28;20826;-70
2022/12/24 04:18:33;;;;;;;10.63;6.43;;;;;;;;;;5071527;28;20417;-70
2022/12/24 04:20:59;;;;;;;10.40;5.40;;;;;;;;;;5070404;28;20823;-70
2022/12/24 04:23:26;;;;;;;12.53;6.67;;;;;;;;;;5071009;28;20983;-70
2022/12/24 04:26:10;;;;;;;10.63;5.40;;;;;;;;;;5055636;28;20760;-70
2022/12/24 04:28:37;;;;;;;12.33;5.40;;;;;;;;;;5053276;28;20474;-70
2022/12/24 04:31:05;;;;;;;12.43;6.80;;;;;;;;;;5068370;28;20454;-70
2022/12/24 04:33:32;;;;;;;11.27;6.53;;;;;;;;;;5053434;28;20408;-70
2022/12/24 04:36:01;;;;;;;12.63;6.90;;;;;;;;;;5070726;28;20423;-70
2022/12/24 04:38:28;;;;;;;14.17;6.70;;;;;;;;;;5070426;28;20428;-70
2022/12/24 04:40:59;;;;;;;20.57;9.30;;;;;;;;;;5052962;28;20816;-70
2022/12/24 04:43:26;;;;;;;15.23;8.50;;;;;;;;;;5070163;28;20435;-70
2022/12/24 04:45:53;;;;;;;12.47;7.13;;;;;;;;;;5070438;28;20850;-70
2022/12/24 04:48:20;;;;;;;14.10;8.70;;;;;;;;;;5053161;28;20432;-70
2022/12/24 04:50:47;;;;;;;15.53;10.03;;;;;;;;;;5052452;28;20971;-70
2022/12/24 04:53:16;;;;;;;12.67;6.37;;;;;;;;;;5078942;28;20465;-70
2022/12/24 04:55:46;;;;;;;11.97;6.30;;;;;;;;;;5090514;28;20619;-70
2022/12/24 04:58:12;;;;;;;9.40;5.70;;;;;;;;;;5090519;28;20431;-70
2022/12/24 05:00:39;;;;;;;11.67;6.17;;;;;;;;;;5090367;28;20455;-70
2022/12/24 05:03:06;;;;;;;9.43;5.70;;;;;;;;;;5072310;28;20428;-70
2022/12/24 05:05:32;;;;;;;8.50;5.77;;;;;;;;;;5090309;28;20469;-70
2022/12/24 05:07:59;;;;;;;12.00;6.03;;;;;;;;;;5090371;28;20503;-70
2022/12/24 05:10:26;;;;;;;10.53;5.73;;;;;;;;;;5089981;28;20886;-70
2022/12/24 05:12:52;;;;;;;12.43;7.50;;;;;;;;;;5086670;28;20450;-70
2022/12/24 05:15:19;;;;;;;12.50;6.70;;;;;;;;;;5052697;28;21146;-70
2022/12/24 05:17:46;;;;;;;39.23;20.73;;;;;;;;;;5069790;28;20523;-70
2022/12/24 05:20:12;;;;;;;43.30;21.53;;;;;;;;;;5069895;28;20455;-70
2022/12/24 05:28:10;;;;;;;12.77;7.00;;;;;;;;;;5054687;28;20421;-70
2022/12/24 05:30:37;;;;;;;11.20;6.30;;;;;;;;;;5069537;28;20485;-70
2022/12/24 05:33:04;;;;;;;10.27;6.80;;;;;;;;;;5069301;28;20478;-70
2022/12/24 05:35:30;;;;;;;11.63;6.53;;;;;;;;;;5069663;28;20501;-70
2022/12/24 05:37:57;;;;;;;10.17;6.07;;;;;;;;;;5069582;28;20478;-70
2022/12/24 05:40:24;;;;;;;13.33;6.73;;;;;;;;;;5069344;28;20464;-70
2022/12/24 05:42:51;;;;;;;11.93;6.87;;;;;;;;;;5051773;28;20546;-69
2022/12/24 05:45:18;;;;;;;13.17;6.80;;;;;;;;;;5069450;28;20436;-70
2022/12/24 05:47:44;;;;;;;11.57;6.80;;;;;;;;;;5069381;28;20441;-70
2022/12/24 05:50:11;;;;;;;12.10;6.47;;;;;;;;;;5069633;28;21019;-70
2022/12/24 05:52:40;;;;;;;9.70;5.70;;;;;;;;;;5055527;28;20791;-70
2022/12/24 05:55:07;;;;;;;12.03;7.40;;;;;;;;;;5071143;28;20451;-70
2022/12/24 05:57:34;;;;;;;11.83;7.17;;;;;;;;;;5089794;28;20477;-70
2022/12/24 06:00:01;;;;;;;12.10;6.80;;;;;;;;;;5089683;28;20420;-70
2022/12/24 06:02:37;;;;;;;10.43;5.97;;;;;;;;;;5089457;28;20407;-70
2022/12/24 06:05:04;;;;;;;9.23;5.97;;;;;;;;;;5089389;28;20431;-70
2022/12/24 06:07:31;;;;;;;10.47;6.20;;;;;;;;;;5071253;28;20434;-70
2022/12/24 06:09:58;;;;;;;10.00;5.90;;;;;;;;;;5078269;28;20451;-70
2022/12/24 06:12:24;;;;;;;12.30;6.20;;;;;;;;;;5069243;28;20412;-70
2022/12/24 06:14:51;;;;;;;10.40;6.10;;;;;;;;;;5069027;28;20529;-70
2022/12/24 06:17:18;;;;;;;11.70;6.40;;;;;;;;;;5069189;28;20409;-70
2022/12/24 06:19:44;;;;;;;20.03;10.43;;;;;;;;;;5051380;28;20903;-70
2022/12/24 06:22:11;;;;;;;18.13;9.10;;;;;;;;;;5051312;28;20468;-70
2022/12/24 06:24:38;;;;;;;19.27;10.27;;;;;;;;;;5069591;28;20416;-70
2022/12/24 06:27:05;;;;;;;16.33;8.30;;;;;;;;;;5068901;28;20443;-70
2022/12/24 06:29:32;;;;;;;18.87;9.87;;;;;;;;;;5069266;28;20432;-70
2022/12/24 06:31:58;;;;;;;23.87;10.20;;;;;;;;;;5069001;28;20424;-70
2022/12/24 06:34:25;;;;;;;20.77;10.17;;;;;;;;;;5068753;28;21391;-70
2022/12/24 06:36:52;;;;;;;22.73;11.57;;;;;;;;;;5069025;28;20815;-70
2022/12/24 06:39:18;;;;;;;18.87;10.53;;;;;;;;;;5069443;28;20503;-70
2022/12/24 06:41:45;;;;;;;24.10;12.93;;;;;;;;;;5050940;28;20460;-70
2022/12/24 06:44:12;;;;;;;18.90;11.50;;;;;;;;;;5071609;28;20459;-70
2022/12/24 06:46:38;;;;;;;21.90;12.00;;;;;;;;;;5054423;28;20421;-70
2022/12/24 06:49:05;;;;;;;19.40;10.37;;;;;;;;;;5039985;28;20453;-70
2022/12/24 06:51:32;;;;;;;19.37;10.47;;;;;;;;;;5052920;28;20429;-70
2022/12/24 06:53:59;;;;;;;17.30;9.83;;;;;;;;;;5067159;28;20483;-69
2022/12/24 06:56:43;;;;;;;18.03;9.70;;;;;;;;;;5057324;28;21190;-70
2022/12/24 06:59:10;;;;;;;15.17;8.63;;;;;;;;;;5054026;28;20490;-70
2022/12/24 07:01:37;;;;;;;17.50;8.43;;;;;;;;;;5072343;28;21002;-70
2022/12/24 07:04:03;;;;;;;16.70;10.03;;;;;;;;;;5072448;28;20427;-70
2022/12/24 07:06:30;;;;;;;20.57;10.93;;;;;;;;;;5072603;28;20421;-70
2022/12/24 07:08:57;;;;;;;18.03;10.63;;;;;;;;;;5071371;28;20460;-70
2022/12/24 07:11:23;;;;;;;19.63;10.67;;;;;;;;;;5052376;28;20421;-70
2022/12/24 07:13:50;;;;;;;19.90;11.30;;;;;;;;;;5052257;28;20487;-70
2022/12/24 07:16:17;;;;;;;19.00;10.43;;;;;;;;;;5052202;28;20437;-69
2022/12/24 07:18:44;;;;;;;19.93;12.03;;;;;;;;;;5052272;28;20440;-70
2022/12/24 07:21:10;;;;;;;18.93;11.47;;;;;;;;;;5052226;28;20467;-69
2022/12/24 07:23:37;;;;;;;108.20;56.77;;;;;;;;;;5052111;28;20566;-69
2022/12/24 07:26:04;;;;;;;36.50;22.77;;;;;;;;;;5052027;28;20968;-69
2022/12/24 07:28:31;;;;;;;28.83;15.53;;;;;;;;;;5050903;28;20441;-70
2022/12/24 07:30:58;;;;;;;34.27;20.37;;;;;;;;;;5051493;28;20927;-70
2022/12/24 07:33:25;;;;;;;22.87;13.43;;;;;;;;;;5034384;28;21163;-70
2022/12/24 07:35:59;;;;;;;27.83;16.83;;;;;;;;;;5034583;28;20429;-69
2022/12/24 07:38:26;;;;;;;26.80;16.20;;;;;;;;;;5051559;28;20859;-69
2022/12/24 07:40:53;;;;;;;33.47;18.23;;;;;;;;;;5051774;28;20456;-69
2022/12/24 07:43:22;;;;;;;28.50;14.83;;;;;;;;;;5034215;28;20413;-69
2022/12/24 07:45:50;;;;;;;25.77;13.97;;;;;;;;;;5017538;28;20448;-69
2022/12/24 07:48:16;;;;;;;28.13;15.27;;;;;;;;;;5034179;28;20414;-70
2022/12/24 07:50:43;;;;;;;24.63;14.33;;;;;;;;;;5049647;28;20445;-69
2022/12/24 07:53:10;;;;;;;26.17;14.60;;;;;;;;;;5053599;28;20465;-69
2022/12/24 07:55:37;;;;;;;22.80;14.13;;;;;;;;;;5052971;28;20812;-69
2022/12/24 07:58:03;;;;;;;27.53;16.33;;;;;;;;;;5071161;28;20413;-69
2022/12/24 08:00:30;;;;;;;36.90;19.80;;;;;;;;;;5072073;28;20978;-69
2022/12/24 08:02:58;;;;;;;37.57;20.27;;;;;;;;;;5052839;28;20437;-70
2022/12/24 08:05:26;;;;;;;28.53;15.67;;;;;;;;;;5071054;28;20467;-70
2022/12/24 08:07:53;;;;;;;31.93;17.27;;;;;;;;;;5053433;28;20510;-69
2022/12/24 08:10:20;;;;;;;29.87;17.07;;;;;;;;;;5033698;28;20507;-70
2022/12/24 08:12:47;;;;;;;29.53;17.13;;;;;;;;;;5049424;28;20475;-70
2022/12/24 08:15:14;;;;;;;31.77;17.37;;;;;;;;;;5051157;28;21261;-70
2022/12/24 08:17:40;;;;;;;30.23;16.73;;;;;;;;;;5050649;28;20440;-71
2022/12/24 08:20:07;;;;;;;31.53;15.83;;;;;;;;;;5050746;28;20452;-70
2022/12/24 08:22:35;;;;;;;28.10;15.50;;;;;;;;;;5050467;28;20994;-71
2022/12/24 08:25:02;;;;;;;20.07;11.77;;;;;;;;;;5032641;28;21098;-71
2022/12/24 08:27:29;;;;;;;24.37;14.37;;;;;;;;;;5050645;28;20417;-70
2022/12/24 08:29:56;;;;;;;28.37;16.00;;;;;;;;;;5032838;28;20442;-71
2022/12/24 08:32:25;;;;;;;27.97;15.23;;;;;;;;;;5033295;28;20433;-70
2022/12/24 08:34:52;;;;;;;28.37;18.77;;;;;;;;;;5032880;28;20440;-71
2022/12/24 08:37:18;;;;;;;22.07;13.17;;;;;;;;;;5032599;28;20459;-71
2022/12/24 08:39:46;;;;;;;16.73;9.37;;;;;;;;;;5050151;28;20433;-70
2022/12/24 08:42:13;;;;;;;20.77;10.60;;;;;;;;;;5033288;28;20465;-71
2022/12/24 08:44:40;;;;;;;18.40;10.43;;;;;;;;;;5032730;28;20432;-70
2022/12/24 08:47:07;;;;;;;17.70;10.93;;;;;;;;;;5049756;28;20528;-71
2022/12/24 08:49:33;;;;;;;22.40;11.57;;;;;;;;;;5039920;28;20469;-71
2022/12/24 08:52:00;;;;;;;20.40;11.67;;;;;;;;;;5048882;28;20441;-71
2022/12/24 08:54:27;;;;;;;27.73;13.60;;;;;;;;;;5067540;28;20427;-69
2022/12/24 08:56:54;;;;;;;27.13;14.70;;;;;;;;;;5069302;28;20451;-69
2022/12/24 08:59:21;;;;;;;25.97;13.40;;;;;;;;;;5070033;28;20441;-69
2022/12/24 09:01:47;;;;;;;24.90;11.87;;;;;;;;;;5070240;28;20467;-70
2022/12/24 09:04:14;;;;;;;23.27;13.63;;;;;;;;;;5054140;28;20443;-71
2022/12/24 09:06:41;;;;;;;33.03;17.57;;;;;;;;;;5049275;28;20426;-71
2022/12/24 09:09:08;;;;;;;34.60;18.10;;;;;;;;;;5049760;28;20958;-71
2022/12/24 09:11:35;;;;;;;31.33;16.00;;;;;;;;;;5050046;28;20476;-71
2022/12/24 09:14:02;;;;;;;29.13;16.40;;;;;;;;;;5049458;28;20433;-71
2022/12/24 09:16:29;;;;;;;129.97;23.40;;;;;;;;;;5049760;28;20456;-71
2022/12/24 09:18:56;;;;;;;23.53;12.27;;;;;;;;;;5049807;28;20432;-71
2022/12/24 09:21:25;;;;;;;20.53;12.13;;;;;;;;;;5048663;28;20210;-72
2022/12/24 09:23:52;;;;;;;23.33;13.37;;;;;;;;;;5049687;28;20530;-71
2022/12/24 09:26:21;;;;;;;15.77;10.43;;;;;;;;;;5049853;28;20453;-72
2022/12/24 09:28:47;;;;;;;20.87;12.40;;;;;;;;;;5049208;28;20213;-71
2022/12/24 09:31:14;;;;;;;13.57;8.03;;;;;;;;;;5031860;28;20194;-72
2022/12/24 09:33:41;;;;;;;12.60;8.50;;;;;;;;;;5048587;28;20205;-72
2022/12/24 09:36:09;;;;;;;12.23;7.70;;;;;;;;;;5049858;28;20191;-72
2022/12/24 09:38:36;;;;;;;12.23;7.97;;;;;;;;;;5048274;28;20285;-72
2022/12/24 09:41:25;;;;;;;14.20;7.83;;;;;;;;;;5049162;28;20217;-73
2022/12/24 09:44:00;;;;;;;12.87;7.37;;;;;;;;;;5049290;28;20183;-73
2022/12/24 09:46:30;;;;;;;10.73;6.50;;;;;;;;;;5048040;28;20241;-73
2022/12/24 09:49:00;;;;;;;11.97;7.13;;;;;;;;;;5014954;28;20227;-73
2022/12/24 09:51:36;;;;;;;12.70;7.23;;;;;;;;;;5032043;28;20597;-73
2022/12/24 09:54:04;;;;;;;9.07;5.80;;;;;;;;;;5046331;28;20279;-73
2022/12/24 09:56:38;;;;;;;7.50;3.70;;;;;;;;;;5069329;28;20188;-73
2022/12/24 09:59:09;;;;;;;6.43;4.47;;;;;;;;;;5050461;28;20244;-73
2022/12/24 10:01:36;;;;;;;7.77;4.70;;;;;;;;;;5051546;28;20247;-73
2022/12/24 10:04:09;;;;;;;5.83;3.93;;;;;;;;;;5051759;28;20201;-73
2022/12/24 10:06:48;;;;;;;2.87;2.00;;;;;;;;;;5051972;28;20274;-73
2022/12/24 10:09:28;;;;;;;4.63;2.47;;;;;;;;;;5051674;28;20186;-73
2022/12/24 10:11:57;;;;;;;2.60;1.50;;;;;;;;;;5069185;28;20240;-73
2022/12/24 10:14:43;;;;;;;2.23;1.17;;;;;;;;;;5050743;28;20880;-73
2022/12/24 10:17:22;;;;;;;2.10;1.33;;;;;;;;;;5049087;28;20195;-73
2022/12/24 10:20:07;;;;;;;2.50;1.30;;;;;;;;;;5051445;28;20213;-74
2022/12/24 10:22:36;;;;;;;2.20;0.80;;;;;;;;;;5053084;28;20268;-73
2022/12/24 10:25:06;;;;;;;2.00;1.00;;;;;;;;;;5035360;28;20645;-73
2022/12/24 10:27:35;;;;;;;2.43;0.63;;;;;;;;;;5053384;28;20318;-74
2022/12/24 10:30:05;;;;;;;1.20;0.80;;;;;;;;;;5034869;28;20194;-74
2022/12/24 10:32:39;;;;;;;1.30;0.90;;;;;;;;;;5035108;28;20665;-74
2022/12/24 10:35:15;;;;;;;1.83;1.00;;;;;;;;;;5035444;28;20585;-74
2022/12/24 10:37:42;;;;;;;2.93;1.23;;;;;;;;;;5035139;28;20616;-74
2022/12/24 10:40:13;;;;;;;1.53;0.87;;;;;;;;;;5052583;28;20175;-75
2022/12/24 10:42:44;;;;;;;2.07;0.93;;;;;;;;;;5052997;28;20222;-72
2022/12/24 10:45:17;;;;;;;3.80;1.50;;;;;;;;;;5035378;28;20198;-74
2022/12/24 10:47:45;;;;;;;1.77;1.13;;;;;;;;;;5018912;28;20187;-74
2022/12/24 10:50:13;;;;;;;2.70;0.90;;;;;;;;;;5047590;28;20276;-75
2022/12/24 10:52:40;;;;;;;1.93;0.93;;;;;;;;;;5055020;28;20181;-74
2022/12/24 10:55:28;;;;;;;1.90;1.10;;;;;;;;;;5071316;28;20174;-74
2022/12/24 10:58:03;;;;;;;1.50;0.90;;;;;;;;;;5072391;28;20198;-75
2022/12/24 11:00:31;;;;;;;2.00;1.10;;;;;;;;;;5071507;28;20192;-74
2022/12/24 11:03:11;;;;;;;3.30;0.97;;;;;;;;;;5055010;28;20210;-74
2022/12/24 11:05:39;;;;;;;1.73;0.80;;;;;;;;;;5054804;28;20190;-75
2022/12/24 11:08:13;;;;;;;1.67;0.87;;;;;;;;;;5072359;28;20190;-75
2022/12/24 11:10:44;;;;;;;2.30;0.83;;;;;;;;;;5071892;28;20269;-74
2022/12/24 11:13:25;;;;;;;2.97;0.90;;;;;;;;;;5054713;28;20240;-74
2022/12/24 11:16:07;;;;;;;1.83;0.87;;;;;;;;;;5042073;28;20202;-74
2022/12/24 11:18:36;;;;;;;1.63;0.80;;;;;;;;;;5052058;28;20287;-74
2022/12/24 11:21:03;;;;;;;1.77;0.80;;;;;;;;;;5050795;28;20190;-74
2022/12/24 11:23:30;;;;;;;3.00;1.00;;;;;;;;;;5050505;28;20223;-74
2022/12/24 11:25:58;;;;;;;2.57;1.00;;;;;;;;;;5050405;28;20222;-74
2022/12/24 11:28:28;;;;;;;2.33;1.07;;;;;;;;;;5051721;28;20203;-74
2022/12/24 11:30:55;;;;;;;4.90;3.10;;;;;;;;;;5050522;28;20191;-74
2022/12/24 11:33:22;;;;;;;5.30;3.70;;;;;;;;;;5062259;28;20186;-74
2022/12/24 11:35:50;;;;;;;5.23;3.43;;;;;;;;;;5052076;28;20308;-74
2022/12/24 11:38:21;;;;;;;1.57;1.27;;;;;;;;;;5050679;28;20215;-74
2022/12/24 11:40:49;;;;;;;1.87;0.90;;;;;;;;;;5050331;28;20191;-74
2022/12/24 11:43:17;;;;;;;2.67;1.20;;;;;;;;;;5050370;28;20211;-74
2022/12/24 11:45:51;;;;;;;1.50;0.93;;;;;;;;;;5050358;28;20195;-74
2022/12/24 11:48:36;;;;;;;5.30;4.23;;;;;;;;;;5054453;28;20222;-74
2022/12/24 11:51:04;;;;;;;4.73;3.03;;;;;;;;;;5071325;28;20190;-74
2022/12/24 11:53:37;;;;;;;6.37;4.40;;;;;;;;;;5064414;28;20763;-74
2022/12/24 11:56:05;;;;;;;44.73;23.33;;;;;;;;;;5091539;28;20268;-74
2022/12/24 11:58:47;;;;;;;35.20;19.90;;;;;;;;;;5073713;28;20276;-74
2022/12/24 12:01:14;;;;;;;7.70;4.53;;;;;;;;;;5073789;28;20652;-74
2022/12/24 12:03:48;;;;;;;17.63;7.90;;;;;;;;;;5073397;28;20969;-74
2022/12/24 12:06:20;;;;;;;3.57;1.50;;;;;;;;;;5091697;28;20185;-74
2022/12/24 12:08:47;;;;;;;4.37;2.40;;;;;;;;;;5091189;28;20193;-74
2022/12/24 12:11:14;;;;;;;13.23;9.10;;;;;;;;;;5065148;28;20221;-74
2022/12/24 12:13:42;;;;;;;5.60;2.23;;;;;;;;;;5053360;28;20466;-74
2022/12/24 12:16:20;;;;;;;3.13;2.53;;;;;;;;;;5053265;28;20170;-74
2022/12/24 12:18:52;;;;;;;5.40;3.30;;;;;;;;;;5053303;28;20466;-74
2022/12/24 12:21:20;;;;;;;49.73;31.83;;;;;;;;;;5071252;28;20429;-74
2022/12/24 12:23:48;;;;;;;54.87;30.17;;;;;;;;;;5052777;28;20487;-74
2022/12/24 12:26:20;;;;;;;22.97;15.77;;;;;;;;;;5070751;28;20436;-74
2022/12/24 12:28:53;;;;;;;16.43;10.03;;;;;;;;;;5070658;28;20923;-74
2022/12/24 12:31:39;;;;;;;16.93;11.37;;;;;;;;;;5070754;28;20412;-74
2022/12/24 12:34:15;;;;;;;4.60;3.10;;;;;;;;;;5070890;28;21035;-74
2022/12/24 12:36:45;;;;;;;3.73;2.10;;;;;;;;;;5069604;28;20435;-74
2022/12/24 12:39:12;;;;;;;10.87;4.00;;;;;;;;;;5053122;28;20448;-74
2022/12/24 12:41:43;;;;;;;5.73;3.37;;;;;;;;;;5070248;28;20424;-74
2022/12/24 12:44:34;;;;;;;6.13;3.10;;;;;;;;;;5060704;28;20470;-74
2022/12/24 12:47:01;;;;;;;7.13;4.87;;;;;;;;;;5024348;28;20242;-74
2022/12/24 12:49:47;;;;;;;4.03;1.50;;;;;;;;;;5059945;28;20453;-74
2022/12/24 12:52:17;;;;;;;2.47;1.30;;;;;;;;;;5050318;28;20435;-74
2022/12/24 12:54:47;;;;;;;2.63;1.33;;;;;;;;;;5070466;28;20429;-74
2022/12/24 12:57:15;;;;;;;2.30;1.30;;;;;;;;;;5052592;28;20531;-74
2022/12/24 12:59:43;;;;;;;1.70;1.10;;;;;;;;;;5069575;28;20289;-74
2022/12/24 13:02:32;;;;;;;2.37;1.37;;;;;;;;;;5044723;28;20469;-74
2022/12/24 13:05:17;;;;;;;4.00;1.60;;;;;;;;;;5050400;28;20434;-74
2022/12/24 13:08:04;;;;;;;2.73;1.43;;;;;;;;;;5049943;28;20520;-74
2022/12/24 13:10:58;;;;;;;3.60;1.30;;;;;;;;;;5048744;28;20836;-73
2022/12/24 13:13:30;;;;;;;2.30;1.20;;;;;;;;;;5049726;28;20784;-74
2022/12/24 13:16:16;;;;;;;2.73;1.20;;;;;;;;;;5049945;28;20445;-74
2022/12/24 13:18:46;;;;;;;2.70;1.70;;;;;;;;;;5050083;28;20528;-74
2022/12/24 13:21:17;;;;;;;3.03;1.53;;;;;;;;;;5050223;28;20436;-74
2022/12/24 13:23:44;;;;;;;7.27;4.00;;;;;;;;;;5031481;28;20491;-74
2022/12/24 13:26:11;;;;;;;18.00;10.63;;;;;;;;;;5032358;28;20197;-74
2022/12/24 13:28:39;;;;;;;29.03;12.87;;;;;;;;;;5032079;28;20433;-74
2022/12/24 13:31:24;;;;;;;23.67;10.07;;;;;;;;;;5031802;28;20500;-74
2022/12/24 13:33:59;;;;;;;15.53;7.37;;;;;;;;;;5049691;28;20419;-74
2022/12/24 13:36:45;;;;;;;17.13;8.90;;;;;;;;;;5031872;28;21245;-74
2022/12/24 13:39:18;;;;;;;8.33;4.60;;;;;;;;;;5048278;28;21021;-74
2022/12/24 13:45:38;;;;;;;8.63;5.57;;;;;;;;;;5049545;28;20479;-73
2022/12/24 13:48:06;;;;;;;6.77;4.07;;;;;;;;;;5049017;28;20430;-74
2022/12/24 13:50:36;;;;;;;9.80;6.07;;;;;;;;;;5046697;28;20539;-73
2022/12/24 13:53:03;;;;;;;30.27;18.23;;;;;;;;;;5055089;28;20474;-74
2022/12/24 13:55:31;;;;;;;8.73;7.30;;;;;;;;;;5066487;28;20950;-73
2022/12/24 13:57:58;;;;;;;35.10;20.80;;;;;;;;;;5047553;28;20444;-73
2022/12/24 14:00:52;;;;;;;39.03;19.57;;;;;;;;;;5047988;28;20428;-73
2022/12/24 14:03:22;;;;;;;32.60;13.50;;;;;;;;;;5047762;28;21018;-73
2022/12/24 14:05:51;;;;;;;16.30;9.67;;;;;;;;;;5048026;28;20429;-73
2022/12/24 14:08:22;;;;;;;14.30;8.23;;;;;;;;;;5047791;28;20935;-73
2022/12/24 14:11:08;;;;;;;6.17;4.73;;;;;;;;;;5049075;28;20425;-73
2022/12/24 14:13:39;;;;;;;6.83;4.53;;;;;;;;;;5047638;28;20441;-73
2022/12/24 14:16:26;;;;;;;9.60;5.50;;;;;;;;;;5047517;28;20492;-73
2022/12/24 14:19:15;;;;;;;43.43;20.07;;;;;;;;;;5048486;28;20449;-73
2022/12/24 14:22:03;;;;;;;44.47;20.30;;;;;;;;;;5049052;28;20496;-73
2022/12/24 14:24:32;;;;;;;15.40;7.73;;;;;;;;;;5044278;28;20909;-73
2022/12/24 14:27:04;;;;;;;25.93;17.23;;;;;;;;;;5047831;28;20430;-73
2022/12/24 14:29:33;;;;;;;22.87;14.63;;;;;;;;;;5048863;28;20440;-73
2022/12/24 14:32:18;;;;;;;18.07;11.73;;;;;;;;;;5048860;28;20955;-73
2022/12/24 14:34:45;;;;;;;13.33;8.47;;;;;;;;;;5031335;28;21173;-73
2022/12/24 14:37:12;;;;;;;18.50;10.50;;;;;;;;;;5048823;28;20429;-73
2022/12/24 14:39:43;;;;;;;15.80;9.10;;;;;;;;;;5048177;28;20470;-73
2022/12/24 14:42:29;;;;;;;19.37;11.93;;;;;;;;;;5047239;28;21025;-73
2022/12/24 14:45:32;;;;;;;17.43;11.40;;;;;;;;;;5049270;28;20838;-73
2022/12/24 14:48:14;;;;;;;22.30;11.93;;;;;;;;;;5048638;28;20451;-73
2022/12/24 14:50:48;;;;;;;19.40;11.57;;;;;;;;;;5048799;28;20437;-73
2022/12/24 14:53:20;;;;;;;13.50;7.70;;;;;;;;;;5056869;28;20426;-73
2022/12/24 14:56:16;;;;;;;17.13;9.70;;;;;;;;;;5053395;28;20428;-73
2022/12/24 14:58:44;;;;;;;15.20;8.10;;;;;;;;;;5050469;28;21032;-73